sensor_id;sensor_type;location;lat;lon;timestamp;pressure;altitude;pressure_sealevel;temperature;humidity
8501;BME280;4288;48.484;10.024;2023-02-12T02:05:29;163960.97;;;21.49;0.00
8501;BME280;4288;48.484;10.024;2023-02-12T02:52:33;164143.75;;;21.43;0.00
8501;BME280;4288;48.484;10.024;2023-02-12T03:48:10;163958.28;;;-141.94;0.00
8501;BME280;4288;48.484;10.024;2023-02-12T04:46:04;163960.97;;;-143.23;0.00
8501;BME280;4288;48.484;10.024;2023-02-12T16:51:23;97457.56;;;2.74;nan
8501;BME280;4288;48.484;10.024;2023-02-12T16:53:51;97454.22;;;2.68;nan
8501;BME280;4288;48.484;10.024;2023-02-12T16:56:24;97453.47;;;2.39;nan
8501;BME280;4288;48.484;10.024;2023-02-12T16:58:54;97461.63;;;2.14;nan
8501;BME280;4288;48.484;10.024;2023-02-12T17:01:26;97454.75;;;1.51;nan
8501;BME280;4288;48.484;10.024;2023-02-12T17:03:55;97454.63;;;1.32;nan
8501;BME280;4288;48.484;10.024;2023-02-12T17:06:25;97465.69;;;1.29;nan
8501;BME280;4288;48.484;10.024;2023-02-12T17:08:52;97460.19;;;1.26;nan
8501;BME280;4288;48.484;10.024;2023-02-12T17:11:20;97452.69;;;0.99;nan
8501;BME280;4288;48.484;10.024;2023-02-12T17:13:49;97456.91;;;0.95;nan
8501;BME280;4288;48.484;10.024;2023-02-12T17:16:19;97470.59;;;0.92;nan
8501;BME280;4288;48.484;10.024;2023-02-12T17:18:47;97466.94;;;0.93;nan
8501;BME280;4288;48.484;10.024;2023-02-12T17:21:22;97451.38;;;0.97;nan
8501;BME280;4288;48.484;10.024;2023-02-12T17:23:50;97449.50;;;1.02;nan
8501;BME280;4288;48.484;10.024;2023-02-12T17:26:19;97453.22;;;1.01;nan
8501;BME280;4288;48.484;10.024;2023-02-12T17:28:46;97451.94;;;0.88;nan
8501;BME280;4288;48.484;10.024;2023-02-12T17:31:13;97454.88;;;0.77;nan
8501;BME280;4288;48.484;10.024;2023-02-12T17:33:40;97454.41;;;0.65;nan
8501;BME280;4288;48.484;10.024;2023-02-12T17:36:09;97458.94;;;0.44;nan
8501;BME280;4288;48.484;10.024;2023-02-12T17:38:36;97448.44;;;0.39;nan
8501;BME280;4288;48.484;10.024;2023-02-12T17:41:08;97452.38;;;0.42;nan
8501;BME280;4288;48.484;10.024;2023-02-12T17:43:35;97453.97;;;0.43;nan
8501;BME280;4288;48.484;10.024;2023-02-12T17:46:08;97447.13;;;0.47;nan
8501;BME280;4288;48.484;10.024;2023-02-12T17:48:35;97458.41;;;0.37;nan
8501;BME280;4288;48.484;10.024;2023-02-12T17:51:03;97449.78;;;0.22;nan
8501;BME280;4288;48.484;10.024;2023-02-12T17:53:32;97450.84;;;0.11;nan
8501;BME280;4288;48.484;10.024;2023-02-12T17:55:59;97458.50;;;0.07;nan
8501;BME280;4288;48.484;10.024;2023-02-12T17:58:26;97452.94;;;0.24;nan
8501;BME280;4288;48.484;10.024;2023-02-12T18:00:53;97454.03;;;0.03;nan
8501;BME280;4288;48.484;10.024;2023-02-12T18:03:20;97454.00;;;0.18;nan
8501;BME280;4288;48.484;10.024;2023-02-12T18:05:47;97448.72;;;0.28;nan
8501;BME280;4288;48.484;10.024;2023-02-12T18:08:15;97447.19;;;0.12;nan
8501;BME280;4288;48.484;10.024;2023-02-12T18:10:44;97445.59;;;0.00;nan
8501;BME280;4288;48.484;10.024;2023-02-12T18:13:11;97450.38;;;-0.22;nan
8501;BME280;4288;48.484;10.024;2023-02-12T18:15:39;97447.22;;;-0.19;nan
8501;BME280;4288;48.484;10.024;2023-02-12T18:18:07;97445.66;;;-0.30;nan
8501;BME280;4288;48.484;10.024;2023-02-12T18:20:34;97449.59;;;-0.12;nan
8501;BME280;4288;48.484;10.024;2023-02-12T18:23:02;97450.38;;;-0.22;nan
8501;BME280;4288;48.484;10.024;2023-02-12T18:25:31;97449.28;;;-0.16;nan
8501;BME280;4288;48.484;10.024;2023-02-12T18:27:59;97450.13;;;-0.35;nan
8501;BME280;4288;48.484;10.024;2023-02-12T18:30:27;97442.47;;;-0.17;nan
8501;BME280;4288;48.484;10.024;2023-02-12T18:32:54;97436.69;;;-0.19;nan
8501;BME280;4288;48.484;10.024;2023-02-12T18:35:21;97440.91;;;-0.13;nan
8501;BME280;4288;48.484;10.024;2023-02-12T18:37:48;97443.03;;;-0.20;nan
8501;BME280;4288;48.484;10.024;2023-02-12T18:40:16;97445.13;;;-0.32;nan
8501;BME280;4288;48.484;10.024;2023-02-12T20:26:12;164227.16;;;21.45;0.00
8501;BME280;4288;48.484;10.024;2023-02-12T23:48:03;164227.16;;;21.42;0.00
